Terminal Aerodrome Forecast
Issued by NWS

Home | Current Version | Previous Version | Text Only | Print | Product List | Glossary On
Versions: 1 2 3 4 5 6 7 8 9 10 11 12 13 14
000
FTUS46 KPDT 281120
TAFYKM
TAF
KYKM 281120Z 2812/2912 30009KT P6SM SCT070
     FM282000 VRB05KT P6SM FEW080
     FM290300 30010KT P6SM FEW150 SCT250=

USA.gov is the U.S. government's official web portal to all federal, state and local government web resources and services.